Time;durP1;ratioP1;P1;durP2;ratioP2;P2;SDS_P1;SDS_P2;PMS_P1;PMS_P2;Temp;Humidity;BMP_temperature;BMP_pressure;BME280_temperature;BME280_humidity;BME280_pressure;Samples;Min_cycle;Max_cycle;Signal;HPM_P1;HPM_P2
2022/11/06 00:00:31;;;;;;;2.47;2.28;;;;;;;;;;5044336;28;20049;-88
2022/11/06 00:02:58;;;;;;;2.70;2.50;;;;;;;;;;5052204;28;20053;-88
2022/11/06 00:08:10;;;;;;;5.45;2.47;;;;;;;;;;5031486;28;20157;-89
2022/11/06 00:10:36;;;;;;;2.63;2.53;;;;;;;;;;5032290;28;20107;-89
2022/11/06 00:13:03;;;;;;;3.10;2.90;;;;;;;;;;5032457;28;20130;-88
2022/11/06 00:15:29;;;;;;;3.50;3.30;;;;;;;;;;5047107;28;20053;-88
2022/11/06 00:17:56;;;;;;;3.70;2.90;;;;;;;;;;5052468;28;20496;-88
2022/11/06 00:20:23;;;;;;;3.60;3.35;;;;;;;;;;5056521;28;20056;-89
2022/11/06 00:22:50;;;;;;;4.97;3.67;;;;;;;;;;5056032;28;20091;-88
2022/11/06 00:25:17;;;;;;;3.28;3.08;;;;;;;;;;5048425;28;20046;-88
2022/11/06 00:27:44;;;;;;;3.35;3.15;;;;;;;;;;5016158;28;20113;-89
2022/11/06 00:30:11;;;;;;;3.78;3.45;;;;;;;;;;5039400;28;20053;-89
2022/11/06 00:32:38;;;;;;;3.90;3.60;;;;;;;;;;5056066;28;20469;-88
2022/11/06 00:35:05;;;;;;;3.13;2.83;;;;;;;;;;5055624;28;20052;-88
2022/11/06 00:37:32;;;;;;;2.75;2.55;;;;;;;;;;5055678;28;20552;-89
2022/11/06 00:40:00;;;;;;;2.75;2.65;;;;;;;;;;5055573;28;20110;-88
2022/11/06 00:42:26;;;;;;;2.50;2.40;;;;;;;;;;5050000;28;20057;-89
2022/11/06 00:44:52;;;;;;;3.25;2.92;;;;;;;;;;5035834;28;20486;-88
2022/11/06 00:47:19;;;;;;;4.18;3.92;;;;;;;;;;5035823;28;20046;-89
2022/11/06 00:49:46;;;;;;;4.93;2.85;;;;;;;;;;5035832;28;20041;-88
2022/11/06 00:52:12;;;;;;;6.93;2.33;;;;;;;;;;5035005;28;20061;-89
2022/11/06 00:54:38;;;;;;;3.85;3.38;;;;;;;;;;5035658;28;20045;-90
2022/11/06 00:57:06;;;;;;;3.60;3.47;;;;;;;;;;5036465;28;20054;-90
2022/11/06 00:59:33;;;;;;;4.55;4.15;;;;;;;;;;5036220;28;20055;-90
2022/11/06 01:01:59;;;;;;;3.15;2.85;;;;;;;;;;5035757;28;20464;-89
2022/11/06 01:04:26;;;;;;;6.75;3.25;;;;;;;;;;5035786;28;20045;-88
2022/11/06 01:06:55;;;;;;;3.70;3.35;;;;;;;;;;5035811;28;20107;-88
2022/11/06 01:09:23;;;;;;;3.13;2.92;;;;;;;;;;5038322;28;20057;-88
2022/11/06 01:11:50;;;;;;;6.80;2.65;;;;;;;;;;5055484;28;20052;-89
2022/11/06 01:14:19;;;;;;;4.10;2.85;;;;;;;;;;5043549;28;20061;-89
2022/11/06 01:16:46;;;;;;;3.08;2.88;;;;;;;;;;5035366;28;20119;-89
2022/11/06 01:19:13;;;;;;;2.03;1.92;;;;;;;;;;5035806;28;20108;-89
2022/11/06 01:21:41;;;;;;;2.88;2.55;;;;;;;;;;5054299;28;20546;-89
2022/11/06 01:24:10;;;;;;;2.47;2.28;;;;;;;;;;5054881;28;20440;-89
2022/11/06 01:26:37;;;;;;;3.08;2.97;;;;;;;;;;5054955;28;20459;-89
2022/11/06 01:29:04;;;;;;;3.00;2.70;;;;;;;;;;5054641;28;20559;-89
2022/11/06 01:31:32;;;;;;;2.20;2.10;;;;;;;;;;5039501;28;20103;-89
2022/11/06 01:34:00;;;;;;;2.22;2.13;;;;;;;;;;5034834;28;20103;-89
2022/11/06 01:36:27;;;;;;;5.13;3.00;;;;;;;;;;5053243;28;20053;-89
2022/11/06 01:38:54;;;;;;;3.78;3.58;;;;;;;;;;5054913;28;20049;-90
2022/11/06 01:41:22;;;;;;;3.35;3.05;;;;;;;;;;5054820;28;20122;-89
2022/11/06 01:43:49;;;;;;;3.10;2.90;;;;;;;;;;5054857;28;20110;-89
2022/11/06 01:46:16;;;;;;;3.63;3.42;;;;;;;;;;5054735;28;20451;-89
2022/11/06 01:48:46;;;;;;;2.72;2.63;;;;;;;;;;5045191;28;20091;-89
2022/11/06 01:51:13;;;;;;;2.40;2.25;;;;;;;;;;5033925;28;20041;-90
2022/11/06 01:53:40;;;;;;;2.35;2.15;;;;;;;;;;5035189;28;20046;-89
2022/11/06 01:56:07;;;;;;;3.17;2.97;;;;;;;;;;5034824;28;20099;-89
2022/11/06 01:58:35;;;;;;;3.15;2.88;;;;;;;;;;5034402;28;20057;-89
2022/11/06 02:01:01;;;;;;;2.90;2.80;;;;;;;;;;5034671;28;20053;-89
2022/11/06 02:03:28;;;;;;;5.95;3.28;;;;;;;;;;5034296;28;20103;-89
2022/11/06 02:05:57;;;;;;;6.00;3.60;;;;;;;;;;5033515;28;20123;-90
2022/11/06 02:08:23;;;;;;;2.65;2.55;;;;;;;;;;5034615;28;20073;-88
2022/11/06 02:10:50;;;;;;;2.65;2.45;;;;;;;;;;5034448;28;20045;-90
2022/11/06 02:13:21;;;;;;;3.13;2.92;;;;;;;;;;5034315;28;20432;-89
2022/11/06 02:15:50;;;;;;;7.03;3.10;;;;;;;;;;5034252;28;20107;-89
2022/11/06 02:18:37;;;;;;;3.22;3.03;;;;;;;;;;5034444;28;20469;-88
2022/11/06 02:21:13;;;;;;;4.68;4.30;;;;;;;;;;5025514;28;20045;-89
2022/11/06 02:23:54;;;;;;;3.05;2.85;;;;;;;;;;5014652;28;20050;-90
2022/11/06 02:26:30;;;;;;;5.45;4.43;;;;;;;;;;5029277;28;20700;-90
2022/11/06 02:28:59;;;;;;;3.63;2.72;;;;;;;;;;5033889;28;20104;-89
2022/11/06 02:31:28;;;;;;;4.68;4.45;;;;;;;;;;5034345;28;20051;-89
2022/11/06 02:33:56;;;;;;;3.22;3.08;;;;;;;;;;5034264;28;20057;-89
2022/11/06 02:36:25;;;;;;;5.68;5.13;;;;;;;;;;5033949;28;20053;-89
2022/11/06 02:38:55;;;;;;;3.85;3.65;;;;;;;;;;5033791;28;20045;-89
2022/11/06 02:41:22;;;;;;;;;;;;;;;;;;5033665;28;20547;-88
2022/11/06 02:43:49;;;;;;;4.63;4.28;;;;;;;;;;5034195;28;19921;-89
2022/11/06 02:46:20;;;;;;;1.88;1.70;;;;;;;;;;5033881;28;20050;-88
2022/11/06 02:48:47;;;;;;;10.95;4.25;;;;;;;;;;5033554;28;20548;-88
2022/11/06 02:51:17;;;;;;;8.25;5.88;;;;;;;;;;5045392;28;20386;-88
2022/11/06 02:53:45;;;;;;;4.88;3.85;;;;;;;;;;5049736;28;20053;-88
2022/11/06 02:56:14;;;;;;;5.22;4.82;;;;;;;;;;5045442;28;20045;-88
2022/11/06 02:58:42;;;;;;;4.63;4.22;;;;;;;;;;5053759;28;20382;-88
2022/11/06 03:01:12;;;;;;;5.93;5.28;;;;;;;;;;5053718;28;20056;-87
2022/11/06 03:03:42;;;;;;;5.32;4.90;;;;;;;;;;5052854;28;20053;-87
2022/11/06 03:06:10;;;;;;;5.88;5.38;;;;;;;;;;5042109;28;20053;-88
2022/11/06 03:08:39;;;;;;;5.93;5.43;;;;;;;;;;5032964;28;20112;-88
2022/11/06 03:11:11;;;;;;;3.95;3.42;;;;;;;;;;5027225;28;20049;-88
2022/11/06 03:13:44;;;;;;;4.65;4.25;;;;;;;;;;5032936;28;20571;-88
2022/11/06 03:16:18;;;;;;;7.18;4.72;;;;;;;;;;5033257;28;20045;-89
2022/11/06 03:18:49;;;;;;;5.85;5.40;;;;;;;;;;5032811;28;20107;-89
2022/11/06 03:21:19;;;;;;;3.83;3.58;;;;;;;;;;5043552;28;20053;-88
2022/11/06 03:23:47;;;;;;;5.50;4.85;;;;;;;;;;5053081;28;20057;-88
2022/11/06 03:26:15;;;;;;;5.63;5.10;;;;;;;;;;5037236;28;20054;-89
2022/11/06 03:28:47;;;;;;;7.63;6.90;;;;;;;;;;5032892;28;20058;-88
2022/11/06 03:31:16;;;;;;;5.60;5.10;;;;;;;;;;5032951;28;20406;-89
2022/11/06 03:33:45;;;;;;;6.43;5.88;;;;;;;;;;5032989;28;20049;-88
2022/11/06 03:36:15;;;;;;;9.57;4.97;;;;;;;;;;5032910;28;20095;-88
2022/11/06 03:38:45;;;;;;;7.45;6.75;;;;;;;;;;5032969;28;20050;-88
2022/11/06 03:41:15;;;;;;;4.40;4.00;;;;;;;;;;5041994;28;20053;-89
2022/11/06 03:43:43;;;;;;;5.35;3.90;;;;;;;;;;5040507;28;20103;-88
2022/11/06 03:46:13;;;;;;;6.45;5.85;;;;;;;;;;5041481;28;20056;-88
2022/11/06 03:48:41;;;;;;;5.20;4.70;;;;;;;;;;5052619;28;20106;-89
2022/11/06 03:51:09;;;;;;;4.75;4.38;;;;;;;;;;5044189;28;20057;-88
2022/11/06 03:53:39;;;;;;;5.18;4.68;;;;;;;;;;5031863;28;20054;-88
2022/11/06 03:56:07;;;;;;;2.47;2.28;;;;;;;;;;5032508;28;20046;-88
2022/11/06 03:58:37;;;;;;;4.32;3.95;;;;;;;;;;5032313;28;20501;-88
2022/11/06 04:01:05;;;;;;;7.47;4.70;;;;;;;;;;5016782;28;20552;-89
2022/11/06 04:03:34;;;;;;;7.38;4.65;;;;;;;;;;5013128;28;20493;-89
2022/11/06 04:06:06;;;;;;;6.53;5.90;;;;;;;;;;5012685;28;20058;-88
2022/11/06 04:14:04;;;;;;;4.53;4.13;;;;;;;;;;5012799;28;20112;-88
2022/11/06 04:16:33;;;;;;;6.65;5.28;;;;;;;;;;5022515;28;20132;-88
2022/11/06 04:18:59;;;;;;;3.67;3.42;;;;;;;;;;5031997;28;20115;-88
2022/11/06 04:21:32;;;;;;;7.10;3.83;;;;;;;;;;5032610;28;20460;-88
2022/11/06 04:26:57;;;;;;;3.95;3.50;;;;;;;;;;5043517;28;20102;-88
2022/11/06 04:29:30;;;;;;;5.38;4.53;;;;;;;;;;5051730;28;20049;-88
2022/11/06 04:32:00;;;;;;;3.33;3.13;;;;;;;;;;5051599;28;20111;-88
2022/11/06 04:34:31;;;;;;;6.10;4.25;;;;;;;;;;5052600;28;20106;-88
2022/11/06 04:37:00;;;;;;;6.50;4.80;;;;;;;;;;5043790;28;20048;-88
2022/11/06 04:39:28;;;;;;;5.13;4.63;;;;;;;;;;5051903;28;20091;-88
2022/11/06 04:42:00;;;;;;;3.83;3.42;;;;;;;;;;5039687;28;20100;-88
2022/11/06 04:44:29;;;;;;;4.97;4.53;;;;;;;;;;5032202;28;20049;-88
2022/11/06 04:46:58;;;;;;;3.78;3.47;;;;;;;;;;5043909;28;20049;-88
2022/11/06 04:49:26;;;;;;;0.95;0.95;;;;;;;;;;5051842;28;20053;-88
2022/11/06 04:51:53;;;;;;;4.25;3.85;;;;;;;;;;5036597;28;20046;-87
2022/11/06 04:54:20;;;;;;;3.30;3.10;;;;;;;;;;5032139;28;20494;-87
2022/11/06 04:56:46;;;;;;;4.07;3.47;;;;;;;;;;5041752;28;20045;-86
2022/11/06 04:59:15;;;;;;;8.00;4.70;;;;;;;;;;5051297;28;20045;-86
2022/11/06 05:01:42;;;;;;;4.35;3.95;;;;;;;;;;5051290;28;20110;-87
2022/11/06 05:04:08;;;;;;;7.43;5.80;;;;;;;;;;5051757;28;20509;-87
2022/11/06 05:06:35;;;;;;;5.93;4.32;;;;;;;;;;5041932;28;20045;-87
2022/11/06 05:09:01;;;;;;;4.55;4.15;;;;;;;;;;5034857;28;20049;-87
2022/11/06 05:11:28;;;;;;;7.80;5.15;;;;;;;;;;5042135;28;20045;-89
2022/11/06 05:13:54;;;;;;;4.15;3.85;;;;;;;;;;5055375;28;20045;-88
2022/11/06 05:16:22;;;;;;;3.60;3.30;;;;;;;;;;5055107;28;20045;-87
2022/11/06 05:18:48;;;;;;;6.45;5.28;;;;;;;;;;5054634;28;20053;-87
2022/11/06 05:23:59;;;;;;;11.63;6.15;;;;;;;;;;5034306;28;20085;-87
2022/11/06 05:26:25;;;;;;;4.57;3.47;;;;;;;;;;5034859;28;20539;-87
2022/11/06 05:28:52;;;;;;;4.00;3.70;;;;;;;;;;5035147;28;20084;-87
2022/11/06 05:31:18;;;;;;;4.88;4.45;;;;;;;;;;5035086;28;20045;-87
2022/11/06 05:33:46;;;;;;;4.93;4.53;;;;;;;;;;5035323;28;20167;-88
2022/11/06 05:36:13;;;;;;;7.82;6.63;;;;;;;;;;5038047;28;20095;-87
2022/11/06 05:38:39;;;;;;;4.50;3.58;;;;;;;;;;5037980;28;20092;-88
2022/11/06 05:41:06;;;;;;;5.72;4.55;;;;;;;;;;5017063;28;20049;-88
2022/11/06 05:43:32;;;;;;;7.13;5.63;;;;;;;;;;5035234;28;20099;-87
2022/11/06 05:45:59;;;;;;;4.13;3.83;;;;;;;;;;5034627;28;20053;-88
2022/11/06 05:48:26;;;;;;;4.85;4.45;;;;;;;;;;5034710;28;20149;-89
2022/11/06 05:50:54;;;;;;;4.88;4.25;;;;;;;;;;5034743;28;20049;-89
2022/11/06 05:53:20;;;;;;;6.03;3.65;;;;;;;;;;5054792;28;20135;-88
2022/11/06 05:55:47;;;;;;;5.00;4.53;;;;;;;;;;5038912;28;20456;-88
2022/11/06 05:58:13;;;;;;;5.38;3.83;;;;;;;;;;5034524;28;20111;-88
2022/11/06 06:00:40;;;;;;;5.85;4.22;;;;;;;;;;5034494;28;20050;-89
2022/11/06 06:03:06;;;;;;;4.57;4.18;;;;;;;;;;5052166;28;20049;-89
2022/11/06 06:05:33;;;;;;;4.93;4.55;;;;;;;;;;5054155;28;20773;-89
2022/11/06 06:08:01;;;;;;;4.28;3.88;;;;;;;;;;5054549;28;20052;-89
2022/11/06 06:10:27;;;;;;;5.75;4.53;;;;;;;;;;5054543;28;20053;-89
2022/11/06 06:12:54;;;;;;;6.32;5.35;;;;;;;;;;5050744;28;20558;-89
2022/11/06 06:15:20;;;;;;;5.00;4.60;;;;;;;;;;5053620;28;20057;-88
2022/11/06 06:17:47;;;;;;;5.72;5.22;;;;;;;;;;5053748;28;20049;-88
2022/11/06 06:20:13;;;;;;;6.90;5.32;;;;;;;;;;5054427;28;20065;-88
2022/11/06 06:22:39;;;;;;;6.40;5.70;;;;;;;;;;5041484;28;20095;-90
2022/11/06 06:25:08;;;;;;;4.32;4.03;;;;;;;;;;5034859;28;20049;-91
2022/11/06 06:27:34;;;;;;;4.22;3.83;;;;;;;;;;5035384;28;20049;-89
2022/11/06 06:30:01;;;;;;;5.72;5.30;;;;;;;;;;5034268;28;20103;-89
2022/11/06 06:32:27;;;;;;;6.80;5.20;;;;;;;;;;5044245;28;20103;-89
2022/11/06 06:34:54;;;;;;;8.35;4.47;;;;;;;;;;5053902;28;20045;-89
2022/11/06 06:37:20;;;;;;;4.18;2.80;;;;;;;;;;5044987;28;20099;-89
2022/11/06 06:39:47;;;;;;;4.57;4.28;;;;;;;;;;5034021;28;20486;-90
2022/11/06 06:42:14;;;;;;;3.35;2.72;;;;;;;;;;5034327;28;20103;-89
2022/11/06 06:44:41;;;;;;;6.07;4.40;;;;;;;;;;5033877;28;20049;-90
2022/11/06 06:47:07;;;;;;;5.57;4.82;;;;;;;;;;5040877;28;20049;-89
2022/11/06 06:49:34;;;;;;;8.05;7.28;;;;;;;;;;5053783;28;20049;-90
2022/11/06 06:52:01;;;;;;;7.65;5.05;;;;;;;;;;5053420;28;20099;-89
2022/11/06 06:54:27;;;;;;;6.75;4.47;;;;;;;;;;5053977;28;20049;-90
2022/11/06 06:56:54;;;;;;;5.75;4.30;;;;;;;;;;5053710;28;20056;-90
2022/11/06 06:59:22;;;;;;;9.07;5.20;;;;;;;;;;5046392;28;20037;-89
2022/11/06 07:01:48;;;;;;;24.70;4.88;;;;;;;;;;5037257;28;20094;-90
2022/11/06 07:04:15;;;;;;;6.25;5.75;;;;;;;;;;5053449;28;20103;-90
2022/11/06 07:06:41;;;;;;;5.20;4.68;;;;;;;;;;5045721;28;20053;-90
2022/11/06 07:09:08;;;;;;;5.20;4.70;;;;;;;;;;5039389;28;20050;-89
2022/11/06 07:11:34;;;;;;;6.57;5.35;;;;;;;;;;5029553;28;20413;-90
2022/11/06 07:14:01;;;;;;;6.80;6.13;;;;;;;;;;5033781;28;20081;-90
2022/11/06 07:16:31;;;;;;;9.18;6.65;;;;;;;;;;5033554;28;20049;-90
2022/11/06 07:18:57;;;;;;;7.28;6.20;;;;;;;;;;5032995;28;20061;-90
2022/11/06 07:21:24;;;;;;;9.80;8.93;;;;;;;;;;5033385;28;20045;-90
2022/11/06 07:23:51;;;;;;;8.48;7.43;;;;;;;;;;5033323;28;20108;-90
2022/11/06 07:26:17;;;;;;;5.63;4.95;;;;;;;;;;5033047;28;20050;-90
2022/11/06 07:28:44;;;;;;;9.38;8.38;;;;;;;;;;5049115;28;20064;-89
2022/11/06 07:31:11;;;;;;;7.57;6.88;;;;;;;;;;5029949;28;20100;-90
2022/11/06 07:33:39;;;;;;;16.33;6.18;;;;;;;;;;5019959;28;20050;-90
2022/11/06 07:36:06;;;;;;;8.73;7.85;;;;;;;;;;5013211;28;21147;-90
2022/11/06 07:38:33;;;;;;;8.65;7.82;;;;;;;;;;5024921;28;20041;-90
2022/11/06 07:41:01;;;;;;;11.45;8.02;;;;;;;;;;5032627;28;20611;-94
2022/11/06 07:43:27;;;;;;;7.65;6.95;;;;;;;;;;5033189;28;20045;-93
2022/11/06 07:45:54;;;;;;;6.97;6.32;;;;;;;;;;5033045;28;20079;-90
2022/11/06 07:48:20;;;;;;;8.80;7.65;;;;;;;;;;5033017;28;20049;-90
2022/11/06 07:50:48;;;;;;;8.07;7.30;;;;;;;;;;5033066;28;20080;-90
2022/11/06 07:53:15;;;;;;;12.75;7.68;;;;;;;;;;5033121;28;20112;-91
2022/11/06 07:55:47;;;;;;;8.43;6.75;;;;;;;;;;5032749;28;20045;-90
2022/11/06 07:58:14;;;;;;;5.15;4.75;;;;;;;;;;5033151;28;20045;-91
2022/11/06 08:00:40;;;;;;;6.13;5.53;;;;;;;;;;5032798;28;20402;-88
2022/11/06 08:03:07;;;;;;;5.40;4.88;;;;;;;;;;5031412;28;20041;-87
2022/11/06 08:05:33;;;;;;;7.75;7.03;;;;;;;;;;5032332;28;20390;-90
2022/11/06 08:08:01;;;;;;;6.20;5.60;;;;;;;;;;5032487;28;20080;-91
2022/11/06 08:10:28;;;;;;;9.52;6.70;;;;;;;;;;5033090;28;20045;-90
2022/11/06 08:12:54;;;;;;;4.63;4.13;;;;;;;;;;5034736;28;20107;-91
2022/11/06 08:15:21;;;;;;;7.60;4.90;;;;;;;;;;5032728;28;20045;-90
2022/11/06 08:17:47;;;;;;;7.95;7.18;;;;;;;;;;5032937;28;20045;-92
2022/11/06 08:20:14;;;;;;;7.10;6.45;;;;;;;;;;5032390;28;20461;-92
2022/11/06 08:22:41;;;;;;;6.13;5.50;;;;;;;;;;5032390;28;20037;-88
2022/11/06 08:25:09;;;;;;;7.93;5.93;;;;;;;;;;5031271;28;20489;-89
2022/11/06 08:27:36;;;;;;;7.97;7.10;;;;;;;;;;5031746;28;20148;-89
2022/11/06 08:30:03;;;;;;;10.68;7.40;;;;;;;;;;5031315;28;20406;-89
2022/11/06 08:32:30;;;;;;;7.47;6.07;;;;;;;;;;5032147;28;20053;-90
2022/11/06 08:34:56;;;;;;;9.13;6.28;;;;;;;;;;5032503;28;20049;-90
2022/11/06 08:37:23;;;;;;;11.10;7.13;;;;;;;;;;5032024;28;20641;-90
2022/11/06 08:39:49;;;;;;;7.72;7.03;;;;;;;;;;5033505;28;20095;-90
2022/11/06 08:42:17;;;;;;;12.55;6.32;;;;;;;;;;5035852;28;20061;-89
2022/11/06 08:44:43;;;;;;;6.88;6.30;;;;;;;;;;5036147;28;20046;-90
2022/11/06 08:47:10;;;;;;;8.82;5.72;;;;;;;;;;5036171;28;20057;-89
2022/11/06 08:49:36;;;;;;;6.53;5.30;;;;;;;;;;5036428;28;20107;-89
2022/11/06 08:52:03;;;;;;;7.97;7.20;;;;;;;;;;5036130;28;20076;-90
2022/11/06 08:54:29;;;;;;;7.05;5.78;;;;;;;;;;5055321;28;20053;-89
2022/11/06 08:56:57;;;;;;;7.43;6.32;;;;;;;;;;5056141;28;20053;-90
2022/11/06 08:59:25;;;;;;;7.47;6.85;;;;;;;;;;5046847;28;20053;-89
2022/11/06 09:01:51;;;;;;;10.02;6.60;;;;;;;;;;5028431;28;20049;-90
2022/11/06 09:04:18;;;;;;;8.13;7.32;;;;;;;;;;5035817;28;20053;-89
2022/11/06 09:06:44;;;;;;;8.82;8.02;;;;;;;;;;5035607;28;20049;-90
2022/11/06 09:09:16;;;;;;;7.95;6.97;;;;;;;;;;5045933;28;20049;-90
2022/11/06 09:11:43;;;;;;;13.73;7.93;;;;;;;;;;5035295;28;20501;-90
2022/11/06 09:14:09;;;;;;;13.10;7.63;;;;;;;;;;5035606;28;20045;-92
2022/11/06 09:16:37;;;;;;;8.85;7.95;;;;;;;;;;5015389;28;20053;-89
2022/11/06 09:19:04;;;;;;;9.45;8.48;;;;;;;;;;5016337;28;20239;-88
2022/11/06 09:21:31;;;;;;;19.38;7.60;;;;;;;;;;5032495;28;20107;-88
2022/11/06 09:23:58;;;;;;;11.40;10.18;;;;;;;;;;5033770;28;20049;-88
2022/11/06 09:26:24;;;;;;;8.68;7.97;;;;;;;;;;5034376;28;20046;-88
2022/11/06 09:28:51;;;;;;;10.38;9.48;;;;;;;;;;5034191;28;20049;-88
2022/11/06 09:31:17;;;;;;;9.38;7.38;;;;;;;;;;5033145;28;20122;-88
2022/11/06 09:33:45;;;;;;;8.02;7.22;;;;;;;;;;5030840;28;20104;-86
2022/11/06 09:36:11;;;;;;;6.03;5.47;;;;;;;;;;5034245;28;20053;-85
2022/11/06 09:38:38;;;;;;;12.77;7.43;;;;;;;;;;5043402;28;20099;-88
2022/11/06 09:41:05;;;;;;;13.05;8.57;;;;;;;;;;5053939;28;20114;-88
2022/11/06 09:43:39;;;;;;;6.20;5.63;;;;;;;;;;5053579;28;20052;-88
2022/11/06 09:46:09;;;;;;;7.43;6.75;;;;;;;;;;5053927;28;20048;-88
2022/11/06 09:48:38;;;;;;;6.10;5.65;;;;;;;;;;5044881;28;20053;-88
2022/11/06 09:51:11;;;;;;;16.55;9.00;;;;;;;;;;5032973;28;20057;-88
2022/11/06 09:53:41;;;;;;;7.05;6.35;;;;;;;;;;5042619;28;20061;-89
2022/11/06 09:56:10;;;;;;;6.68;5.30;;;;;;;;;;5053670;28;20467;-88
2022/11/06 09:58:38;;;;;;;12.18;7.22;;;;;;;;;;5053687;28;20111;-88
2022/11/06 10:01:06;;;;;;;9.70;8.23;;;;;;;;;;5053713;28;20053;-88
2022/11/06 10:03:39;;;;;;;6.35;5.75;;;;;;;;;;5053346;28;20111;-88
2022/11/06 10:06:07;;;;;;;12.80;7.13;;;;;;;;;;5053393;28;20053;-88
2022/11/06 10:08:34;;;;;;;9.55;8.43;;;;;;;;;;5044390;28;20061;-88
2022/11/06 10:11:02;;;;;;;6.50;5.90;;;;;;;;;;5033653;28;20049;-88
2022/11/06 10:13:37;;;;;;;7.95;7.20;;;;;;;;;;5040609;28;20055;-88
2022/11/06 10:16:06;;;;;;;10.65;7.03;;;;;;;;;;5053211;28;20056;-88
2022/11/06 10:18:37;;;;;;;7.35;6.57;;;;;;;;;;5053602;28;20052;-88
2022/11/06 10:21:09;;;;;;;7.82;7.10;;;;;;;;;;5053443;28;20053;-88
2022/11/06 10:23:40;;;;;;;6.85;6.32;;;;;;;;;;5045148;28;20053;-87
2022/11/06 10:26:10;;;;;;;13.57;8.65;;;;;;;;;;5033512;28;20109;-88
2022/11/06 10:28:50;;;;;;;10.90;8.68;;;;;;;;;;5033123;28;20041;-88
2022/11/06 10:31:21;;;;;;;10.10;8.90;;;;;;;;;;5033148;28;20045;-88
2022/11/06 10:33:55;;;;;;;7.15;6.55;;;;;;;;;;5033080;28;20120;-86
2022/11/06 10:36:23;;;;;;;11.85;7.10;;;;;;;;;;5033197;28;20050;-86
2022/11/06 10:38:52;;;;;;;8.05;7.25;;;;;;;;;;5040614;28;20045;-86
2022/11/06 10:41:20;;;;;;;7.57;6.95;;;;;;;;;;5046920;28;20049;-86
2022/11/06 10:43:49;;;;;;;8.40;7.13;;;;;;;;;;5040390;28;20100;-86
2022/11/06 10:46:19;;;;;;;8.60;7.65;;;;;;;;;;5052903;28;20053;-86
2022/11/06 10:48:46;;;;;;;8.75;7.78;;;;;;;;;;5050299;28;20044;-86
2022/11/06 10:51:22;;;;;;;7.53;6.93;;;;;;;;;;5032066;28;20547;-86
2022/11/06 10:53:57;;;;;;;6.72;6.13;;;;;;;;;;5031974;28;20108;-86
2022/11/06 10:56:31;;;;;;;9.85;8.95;;;;;;;;;;5032374;28;20049;-89
2022/11/06 10:58:58;;;;;;;9.48;8.50;;;;;;;;;;5029722;28;20680;-89
2022/11/06 11:01:24;;;;;;;9.85;7.80;;;;;;;;;;5033230;28;20053;-89
2022/11/06 11:03:51;;;;;;;10.23;7.20;;;;;;;;;;5033152;28;20053;-89
2022/11/06 11:06:18;;;;;;;8.45;6.63;;;;;;;;;;5033406;28;20111;-89
2022/11/06 11:08:45;;;;;;;7.45;6.78;;;;;;;;;;5032785;28;20398;-90
2022/11/06 11:11:23;;;;;;;8.35;7.63;;;;;;;;;;5032015;28;20049;-88
2022/11/06 11:13:51;;;;;;;12.35;9.63;;;;;;;;;;5032227;28;20061;-88
2022/11/06 11:16:18;;;;;;;8.20;6.72;;;;;;;;;;5030621;28;20053;-88
2022/11/06 11:18:45;;;;;;;7.60;6.90;;;;;;;;;;5032006;28;20053;-88
2022/11/06 11:21:16;;;;;;;13.95;7.88;;;;;;;;;;5032556;28;20049;-88
2022/11/06 11:23:42;;;;;;;;;;;;;;;;;;5032438;28;20041;-88
2022/11/06 11:26:18;;;;;;;11.32;7.88;;;;;;;;;;5033590;28;19929;-87
2022/11/06 11:28:49;;;;;;;7.88;7.25;;;;;;;;;;5037242;28;20451;-87
2022/11/06 11:31:16;;;;;;;9.40;8.48;;;;;;;;;;5036417;28;20096;-88
2022/11/06 11:33:49;;;;;;;19.98;11.35;;;;;;;;;;5020942;28;20053;-87
2022/11/06 11:36:16;;;;;;;12.30;7.70;;;;;;;;;;5051793;28;20045;-87
2022/11/06 11:38:43;;;;;;;9.02;6.97;;;;;;;;;;5036620;28;20050;-87
2022/11/06 11:41:12;;;;;;;8.45;7.80;;;;;;;;;;5031602;28;20057;-88
2022/11/06 11:43:39;;;;;;;7.30;6.70;;;;;;;;;;5031759;28;20061;-88
2022/11/06 11:46:15;;;;;;;7.40;6.80;;;;;;;;;;5031939;28;20064;-88
2022/11/06 11:48:43;;;;;;;10.00;7.30;;;;;;;;;;5030337;28;20041;-88
2022/11/06 11:51:27;;;;;;;8.43;7.68;;;;;;;;;;5031895;28;20133;-87
2022/11/06 11:53:56;;;;;;;7.53;5.85;;;;;;;;;;5031819;28;20041;-88
2022/11/06 11:56:22;;;;;;;7.85;5.90;;;;;;;;;;5031844;28;20452;-88
2022/11/06 11:58:50;;;;;;;7.75;7.10;;;;;;;;;;5031972;28;20442;-88
2022/11/06 12:01:18;;;;;;;6.93;6.28;;;;;;;;;;5032040;28;20075;-88
2022/11/06 12:03:48;;;;;;;10.20;7.15;;;;;;;;;;5034692;28;20071;-89
2022/11/06 12:06:17;;;;;;;8.27;7.45;;;;;;;;;;5049460;28;20053;-88
2022/11/06 12:08:46;;;;;;;7.43;6.53;;;;;;;;;;5034011;28;20053;-88
2022/11/06 12:11:15;;;;;;;6.00;5.25;;;;;;;;;;5051445;28;20053;-88
2022/11/06 12:13:41;;;;;;;6.75;4.68;;;;;;;;;;5050271;28;20052;-88
2022/11/06 12:16:11;;;;;;;6.10;5.60;;;;;;;;;;5036229;28;20452;-88
2022/11/06 12:18:41;;;;;;;9.38;6.72;;;;;;;;;;5035902;28;20095;-88
2022/11/06 12:21:08;;;;;;;7.50;6.90;;;;;;;;;;5035972;28;20460;-88
2022/11/06 12:23:40;;;;;;;8.73;7.18;;;;;;;;;;5036275;28;20046;-88
2022/11/06 12:26:09;;;;;;;9.90;6.45;;;;;;;;;;5036067;28;20457;-88
2022/11/06 12:28:37;;;;;;;6.93;6.38;;;;;;;;;;5035943;28;20057;-88
2022/11/06 12:31:06;;;;;;;7.43;6.70;;;;;;;;;;5055778;28;20136;-89
2022/11/06 12:33:33;;;;;;;7.93;7.05;;;;;;;;;;5056066;28;20045;-89
2022/11/06 12:36:02;;;;;;;10.15;8.35;;;;;;;;;;5055546;28;20053;-88
2022/11/06 12:38:31;;;;;;;9.32;6.55;;;;;;;;;;5056091;28;20060;-89
2022/11/06 12:41:01;;;;;;;9.05;8.32;;;;;;;;;;5038391;28;20046;-88
2022/11/06 12:43:32;;;;;;;7.15;6.45;;;;;;;;;;5035950;28;20099;-88
2022/11/06 12:46:20;;;;;;;8.40;6.45;;;;;;;;;;5035647;28;20061;-88
2022/11/06 12:48:52;;;;;;;10.38;9.48;;;;;;;;;;5035699;28;20052;-87
2022/11/06 12:51:26;;;;;;;15.77;7.93;;;;;;;;;;5035496;28;20053;-87
2022/11/06 12:54:01;;;;;;;7.32;6.72;;;;;;;;;;5036436;28;20049;-86
2022/11/06 12:56:33;;;;;;;5.68;5.22;;;;;;;;;;5040215;28;20049;-86
2022/11/06 12:59:09;;;;;;;13.63;6.63;;;;;;;;;;5015993;28;20486;-86
2022/11/06 13:01:43;;;;;;;6.07;5.47;;;;;;;;;;5015789;28;20053;-85
2022/11/06 13:04:30;;;;;;;5.45;4.95;;;;;;;;;;5018119;28;20061;-86
2022/11/06 13:07:11;;;;;;;8.38;5.63;;;;;;;;;;5028005;28;20563;-90
2022/11/06 13:09:41;;;;;;;5.22;4.45;;;;;;;;;;5035340;28;20041;-90
2022/11/06 13:12:13;;;;;;;9.25;6.18;;;;;;;;;;5035325;28;20099;-91
2022/11/06 13:14:42;;;;;;;5.88;5.30;;;;;;;;;;5034868;28;20508;-91
2022/11/06 13:17:12;;;;;;;7.65;6.43;;;;;;;;;;5034466;28;20505;-87
2022/11/06 13:19:44;;;;;;;6.97;6.30;;;;;;;;;;5040947;28;20061;-86
2022/11/06 13:22:15;;;;;;;9.10;7.32;;;;;;;;;;5055073;28;20041;-89
2022/11/06 13:24:45;;;;;;;7.05;6.32;;;;;;;;;;5046663;28;20140;-90
2022/11/06 13:27:17;;;;;;;13.48;7.82;;;;;;;;;;5035445;28;20045;-94
2022/11/06 13:29:44;;;;;;;10.73;7.80;;;;;;;;;;5035443;28;20456;-93
2022/11/06 13:32:13;;;;;;;5.63;5.20;;;;;;;;;;5036709;28;20041;-93
2022/11/06 13:34:41;;;;;;;5.47;4.32;;;;;;;;;;5041454;28;20048;-91
2022/11/06 13:37:12;;;;;;;6.97;6.40;;;;;;;;;;5053711;28;20049;-91
2022/11/06 13:39:42;;;;;;;5.95;5.35;;;;;;;;;;5039954;28;20061;-91
2022/11/06 13:42:14;;;;;;;9.35;6.25;;;;;;;;;;5055149;28;20041;-91
2022/11/06 13:44:41;;;;;;;6.78;6.18;;;;;;;;;;5055757;28;20056;-88
2022/11/06 13:47:09;;;;;;;7.85;5.45;;;;;;;;;;5055322;28;20099;-88
2022/11/06 13:49:38;;;;;;;7.35;6.72;;;;;;;;;;5051505;28;20444;-87
2022/11/06 13:52:10;;;;;;;6.07;5.22;;;;;;;;;;5035323;28;20053;-88
2022/11/06 13:54:48;;;;;;;6.03;5.35;;;;;;;;;;5035259;28;20041;-89
2022/11/06 13:57:33;;;;;;;6.63;6.03;;;;;;;;;;5034865;28;20053;-88
2022/11/06 14:00:03;;;;;;;7.07;6.13;;;;;;;;;;5041748;28;20095;-87
2022/11/06 14:02:51;;;;;;;6.80;6.18;;;;;;;;;;5053389;28;20511;-86
2022/11/06 14:05:30;;;;;;;7.25;6.50;;;;;;;;;;5015860;28;20548;-87
2022/11/06 14:07:57;;;;;;;10.63;6.82;;;;;;;;;;5014525;28;20054;-87
2022/11/06 14:10:29;;;;;;;7.25;6.57;;;;;;;;;;5014686;28;20053;-87
2022/11/06 14:12:56;;;;;;;6.10;5.60;;;;;;;;;;5015992;28;20054;-88
2022/11/06 14:15:25;;;;;;;10.27;6.07;;;;;;;;;;5014710;28;20058;-89
2022/11/06 14:17:54;;;;;;;7.22;5.85;;;;;;;;;;5029673;28;20096;-89
2022/11/06 14:20:28;;;;;;;8.88;5.88;;;;;;;;;;5033333;28;20065;-89
2022/11/06 14:22:55;;;;;;;9.57;6.10;;;;;;;;;;5033858;28;20053;-88
2022/11/06 14:25:39;;;;;;;8.55;5.45;;;;;;;;;;5042032;28;20053;-88
2022/11/06 14:28:08;;;;;;;4.55;4.07;;;;;;;;;;5053217;28;20052;-89
2022/11/06 14:30:41;;;;;;;9.20;6.28;;;;;;;;;;5053398;28;20045;-88
2022/11/06 14:33:09;;;;;;;3.78;3.47;;;;;;;;;;5028215;28;20125;-89
2022/11/06 14:35:51;;;;;;;6.35;5.78;;;;;;;;;;5034475;28;20045;-89
2022/11/06 14:38:41;;;;;;;7.25;6.47;;;;;;;;;;5031188;28;20486;-89
2022/11/06 14:41:26;;;;;;;6.18;5.65;;;;;;;;;;5013546;28;20054;-89
2022/11/06 14:43:54;;;;;;;10.20;5.50;;;;;;;;;;5013855;28;20100;-89
2022/11/06 14:46:22;;;;;;;7.82;5.25;;;;;;;;;;5013749;28;20049;-89
2022/11/06 14:48:50;;;;;;;6.00;5.40;;;;;;;;;;5013587;28;20061;-89
2022/11/06 14:51:17;;;;;;;8.32;5.55;;;;;;;;;;5027895;28;20049;-89
2022/11/06 14:53:47;;;;;;;10.63;6.65;;;;;;;;;;5029729;28;20038;-89
2022/11/06 14:56:20;;;;;;;6.93;6.40;;;;;;;;;;5032780;28;20494;-90
2022/11/06 14:58:49;;;;;;;5.82;5.32;;;;;;;;;;5032077;28;20046;-90
2022/11/06 15:01:24;;;;;;;7.43;6.07;;;;;;;;;;5033292;28;20050;-90
2022/11/06 15:03:52;;;;;;;5.78;5.13;;;;;;;;;;5033469;28;20049;-90
2022/11/06 15:06:35;;;;;;;5.95;5.20;;;;;;;;;;5033053;28;20057;-90